createdAt,value
2018-07-21T00:00:01.432Z,6.40
2018-07-21T00:01:01.426Z,6.70
2018-07-21T00:02:01.410Z,6.10
2018-07-21T00:03:01.400Z,6.10
2018-07-21T00:04:01.399Z,6.80
2018-07-21T00:05:01.383Z,6.50
2018-07-21T00:06:01.368Z,6.80
2018-07-21T00:07:01.358Z,6.80
2018-07-21T00:08:01.350Z,7.10
2018-07-21T00:09:01.359Z,6.70
2018-07-21T00:10:01.331Z,6.40
2018-07-21T00:11:01.328Z,6.30
2018-07-21T00:12:01.304Z,6.20
2018-07-21T00:13:01.290Z,6.40
2018-07-21T00:14:01.284Z,7.00
2018-07-21T00:15:01.271Z,6.80
2018-07-21T00:16:01.260Z,6.70
2018-07-21T00:17:01.249Z,6.50
2018-07-21T00:18:01.236Z,7.10
2018-07-21T00:19:01.228Z,6.30
2018-07-21T00:20:01.215Z,6.30
2018-07-21T00:21:01.202Z,6.50
2018-07-21T00:22:01.198Z,6.30
2018-07-21T00:23:01.183Z,7.20
2018-07-21T00:24:01.171Z,6.70
2018-07-21T00:25:01.158Z,6.80
2018-07-21T00:26:01.149Z,6.50
2018-07-21T00:27:01.139Z,6.70
2018-07-21T00:28:01.129Z,6.70
2018-07-21T00:29:01.132Z,6.50
2018-07-21T00:30:01.118Z,6.50
2018-07-21T00:31:01.100Z,6.80
2018-07-21T00:32:01.088Z,7.10
2018-07-21T00:33:01.074Z,6.70
2018-07-21T00:34:01.060Z,6.90
2018-07-21T00:35:01.056Z,7.10
2018-07-21T00:36:01.037Z,7.30
2018-07-21T00:37:01.027Z,6.50
2018-07-21T00:38:01.018Z,6.70
2018-07-21T00:39:01.008Z,7.30
2018-07-21T00:40:00.993Z,6.90
2018-07-21T00:41:00.982Z,6.80
2018-07-21T00:42:00.982Z,7.20
2018-07-21T00:43:00.960Z,6.80
2018-07-21T00:44:00.949Z,7.50
2018-07-21T00:45:00.938Z,7.40
2018-07-21T00:46:00.926Z,7.50
2018-07-21T00:47:00.922Z,7.10
2018-07-21T00:48:00.905Z,7.10
2018-07-21T00:49:00.892Z,7.20
2018-07-21T00:50:00.881Z,7.40
2018-07-21T00:51:00.870Z,7.30
2018-07-21T00:52:00.859Z,7.60
2018-07-21T00:53:00.856Z,7.50
2018-07-21T00:54:00.846Z,7.60
2018-07-21T00:55:00.829Z,8.20
2018-07-21T00:56:00.819Z,7.40
2018-07-21T00:57:00.805Z,7.80
2018-07-21T00:58:00.792Z,7.50
2018-07-21T00:59:00.780Z,7.90
2018-07-21T01:00:00.770Z,7.90
2018-07-21T01:01:00.760Z,7.50
2018-07-21T01:02:00.748Z,7.70
2018-07-21T01:03:00.739Z,7.90
2018-07-21T01:04:00.726Z,7.80
2018-07-21T01:05:00.710Z,7.90
2018-07-21T01:06:00.701Z,7.90
2018-07-21T01:07:00.696Z,6.90
2018-07-21T01:08:00.684Z,7.60
2018-07-21T01:09:00.666Z,7.70
2018-07-21T01:10:00.663Z,7.30
2018-07-21T01:11:00.694Z,8.10
2018-07-21T01:12:00.633Z,7.30
2018-07-21T01:13:00.622Z,7.70
2018-07-21T01:14:00.612Z,7.60
2018-07-21T01:15:00.601Z,7.60
2018-07-21T01:16:00.591Z,8.00
2018-07-21T01:17:00.583Z,7.90
2018-07-21T01:18:00.565Z,8.20
2018-07-21T01:19:00.560Z,7.80
2018-07-21T01:20:00.543Z,8.40
2018-07-21T01:21:00.529Z,8.20
2018-07-21T01:22:00.520Z,8.00
2018-07-21T01:23:00.507Z,8.40
2018-07-21T01:24:00.498Z,7.80
2018-07-21T01:25:00.486Z,7.90
2018-07-21T01:26:00.476Z,8.10
2018-07-21T01:27:00.462Z,7.80
2018-07-21T01:28:00.454Z,8.50
2018-07-21T01:29:00.440Z,8.30
2018-07-21T01:30:00.430Z,8.60
2018-07-21T01:31:00.419Z,8.50
2018-07-21T01:32:00.406Z,8.40
2018-07-21T01:33:00.402Z,8.40
2018-07-21T01:34:00.384Z,8.60
2018-07-21T01:35:00.369Z,8.10
2018-07-21T01:36:00.358Z,9.00
2018-07-21T01:37:00.346Z,9.10
2018-07-21T01:39:00.323Z,8.10
2018-07-21T01:40:00.311Z,8.90
2018-07-21T01:41:00.299Z,8.50
2018-07-21T01:42:00.300Z,8.60
2018-07-21T01:43:01.188Z,8.70
2018-07-21T01:44:00.273Z,8.40
2018-07-21T01:45:00.252Z,8.70
2018-07-21T01:46:00.240Z,8.60
2018-07-21T01:47:00.230Z,8.40
2018-07-21T01:48:44.095Z,9.40
2018-07-21T01:49:44.090Z,8.70
2018-07-21T01:50:44.070Z,8.70
2018-07-21T01:51:44.081Z,9.10
2018-07-21T01:52:44.049Z,8.60
2018-07-21T01:53:44.036Z,8.80
2018-07-21T01:54:44.023Z,8.70
2018-07-21T01:55:44.016Z,8.70
2018-07-21T01:56:44.006Z,8.90
2018-07-21T01:58:48.257Z,8.90
2018-07-21T01:59:48.235Z,8.10
2018-07-21T02:00:48.222Z,9.00
2018-07-21T02:01:48.213Z,8.60
2018-07-21T02:02:48.200Z,8.70
2018-07-21T02:03:48.187Z,8.70
2018-07-21T02:04:48.176Z,8.90
2018-07-21T02:05:48.165Z,8.40
2018-07-21T02:06:48.158Z,8.80
2018-07-21T02:07:48.164Z,8.90
2018-07-21T02:08:48.179Z,9.20
2018-07-21T02:09:48.119Z,9.20
2018-07-21T02:10:48.108Z,9.40
2018-07-21T02:11:48.095Z,9.60
2018-07-21T02:12:48.153Z,8.90
2018-07-21T02:13:48.071Z,9.20
2018-07-21T02:14:48.061Z,9.30
2018-07-21T02:15:48.050Z,9.30
2018-07-21T02:16:48.088Z,9.20
2018-07-21T02:17:48.025Z,9.30
2018-07-21T02:18:48.015Z,8.90
2018-07-21T02:19:48.001Z,9.00
2018-07-21T02:20:47.992Z,9.10
2018-07-21T02:21:47.977Z,9.60
2018-07-21T02:22:47.968Z,9.30
2018-07-21T02:23:47.980Z,9.10
2018-07-21T02:24:47.943Z,9.70
2018-07-21T02:25:47.932Z,9.70
2018-07-21T02:26:47.922Z,10.20
2018-07-21T02:27:47.906Z,9.20
2018-07-21T02:28:47.898Z,8.90
2018-07-21T02:29:47.885Z,8.70
2018-07-21T02:30:47.872Z,9.90
2018-07-21T02:31:47.861Z,9.00
2018-07-21T02:32:47.849Z,9.10
2018-07-21T02:33:47.842Z,9.70
2018-07-21T02:34:47.829Z,9.00
2018-07-21T02:35:47.825Z,9.30
2018-07-21T02:36:47.817Z,9.80
2018-07-21T02:37:47.790Z,9.60
2018-07-21T02:38:47.778Z,9.60
2018-07-21T02:39:47.766Z,8.90
2018-07-21T02:40:47.756Z,8.80
2018-07-21T02:41:47.744Z,9.60
2018-07-21T02:42:47.731Z,9.10
2018-07-21T02:43:47.720Z,9.50
2018-07-21T02:44:47.713Z,9.40
2018-07-21T02:45:47.755Z,9.10
2018-07-21T02:46:47.686Z,8.90
2018-07-21T02:47:47.673Z,9.40
2018-07-21T02:48:47.660Z,9.80
2018-07-21T02:49:47.649Z,9.50
2018-07-21T02:50:47.637Z,9.70
2018-07-21T02:51:47.624Z,9.90
2018-07-21T02:52:47.615Z,9.20
2018-07-21T02:53:47.601Z,9.00
2018-07-21T02:54:47.626Z,9.20
2018-07-21T02:55:47.579Z,9.70
2018-07-21T02:56:47.565Z,8.70
2018-07-21T02:57:47.553Z,9.40
2018-07-21T02:58:47.541Z,9.90
2018-07-21T02:59:47.533Z,9.40
2018-07-21T03:00:47.520Z,9.70
2018-07-21T03:01:47.506Z,9.40
2018-07-21T03:02:47.494Z,9.50
2018-07-21T03:03:47.490Z,9.50
2018-07-21T03:04:47.476Z,9.30
2018-07-21T03:05:47.459Z,9.40
2018-07-21T03:06:47.447Z,9.40
2018-07-21T03:07:47.433Z,9.30
2018-07-21T03:08:47.421Z,9.80
2018-07-21T03:09:47.413Z,9.90
2018-07-21T03:10:47.407Z,9.20
2018-07-21T03:11:47.386Z,9.00
2018-07-21T03:12:47.375Z,9.10
2018-07-21T03:13:47.363Z,10.30
2018-07-21T03:14:47.350Z,9.40
2018-07-21T03:15:47.340Z,9.90
2018-07-21T03:16:47.326Z,9.50
2018-07-21T03:17:47.318Z,9.60
2018-07-21T03:18:47.302Z,9.70
2018-07-21T03:19:47.291Z,10.00
2018-07-21T03:20:47.279Z,10.00
2018-07-21T03:21:47.266Z,9.70
2018-07-21T03:22:47.261Z,10.00
2018-07-21T03:23:47.241Z,9.90
2018-07-21T03:24:47.229Z,9.70
2018-07-21T03:25:47.370Z,9.90
2018-07-21T03:26:47.205Z,9.70
2018-07-21T03:27:47.194Z,10.90
2018-07-21T03:28:47.181Z,10.20
2018-07-21T03:29:47.173Z,10.00
2018-07-21T03:30:47.170Z,10.20
2018-07-21T03:31:47.147Z,10.20
2018-07-21T03:32:47.133Z,10.30
2018-07-21T03:33:47.123Z,11.00
2018-07-21T03:34:47.109Z,10.70
2018-07-21T03:35:47.105Z,11.00
2018-07-21T03:36:47.084Z,10.40
2018-07-21T03:37:47.072Z,10.50
2018-07-21T03:38:47.061Z,10.20
2018-07-21T03:39:47.049Z,11.00
2018-07-21T03:40:47.037Z,10.10
2018-07-21T03:41:47.024Z,10.60
2018-07-21T03:42:47.013Z,11.20
2018-07-21T03:43:47.000Z,11.10
2018-07-21T03:44:46.997Z,11.00
2018-07-21T03:45:46.977Z,11.70
2018-07-21T03:46:46.965Z,11.50
2018-07-21T03:47:46.958Z,10.80
2018-07-21T03:48:46.943Z,10.30
2018-07-21T03:49:46.929Z,11.00
2018-07-21T03:50:46.922Z,10.70
2018-07-21T03:51:46.913Z,11.00
2018-07-21T03:52:46.892Z,11.30
2018-07-21T03:53:46.886Z,10.90
2018-07-21T03:54:46.868Z,11.70
2018-07-21T03:55:46.853Z,12.00
2018-07-21T03:56:46.844Z,11.50
2018-07-21T03:57:46.932Z,10.80
2018-07-21T03:58:46.820Z,11.60
2018-07-21T03:59:46.808Z,10.90
2018-07-21T04:00:46.795Z,11.70
2018-07-21T04:01:46.781Z,11.80
2018-07-21T04:02:46.769Z,12.10
2018-07-21T04:03:46.756Z,12.00
2018-07-21T04:04:46.745Z,12.70
2018-07-21T04:05:46.733Z,11.90
2018-07-21T04:06:46.721Z,11.10
2018-07-21T04:07:46.708Z,11.60
2018-07-21T04:08:46.697Z,12.30
2018-07-21T04:09:46.686Z,12.40
2018-07-21T04:10:46.676Z,12.20
2018-07-21T04:11:46.661Z,12.50
2018-07-21T04:12:46.648Z,11.50
2018-07-21T04:15:45.137Z,12.10
2018-07-21T04:16:45.124Z,12.10
2018-07-21T04:17:45.112Z,12.10
2018-07-21T04:18:45.101Z,12.70
2018-07-21T04:19:45.089Z,12.10
2018-07-21T04:20:45.074Z,11.00
2018-07-21T04:21:45.065Z,12.40
2018-07-21T04:22:45.200Z,12.10
2018-07-21T04:23:45.038Z,11.30
2018-07-21T04:24:45.025Z,12.10
2018-07-21T04:25:45.012Z,11.70
2018-07-21T04:26:45.002Z,11.90
2018-07-21T04:27:44.989Z,11.60
2018-07-21T04:28:44.975Z,12.10
2018-07-21T04:29:44.964Z,11.30
2018-07-21T04:30:44.951Z,12.60
2018-07-21T04:31:44.938Z,11.30
2018-07-21T04:32:44.926Z,12.50
2018-07-21T04:33:44.913Z,12.80
2018-07-21T04:34:44.901Z,12.10
2018-07-21T04:35:44.891Z,12.70
2018-07-21T04:36:44.886Z,12.20
2018-07-21T04:37:44.864Z,12.30
2018-07-21T04:38:44.853Z,11.40
2018-07-21T04:39:44.847Z,11.90
2018-07-21T04:40:44.827Z,12.50
2018-07-21T04:41:44.822Z,13.20
2018-07-21T04:42:44.803Z,12.90
2018-07-21T04:43:44.798Z,12.30
2018-07-21T04:44:44.777Z,12.80
2018-07-21T04:45:44.768Z,12.30
2018-07-21T04:46:44.755Z,13.10
2018-07-21T04:47:44.740Z,12.40
2018-07-21T04:48:44.732Z,12.10
2018-07-21T04:49:44.718Z,12.00
2018-07-21T04:50:44.705Z,13.10
2018-07-21T04:51:44.691Z,12.20
2018-07-21T04:52:44.680Z,13.10
2018-07-21T04:53:44.667Z,12.30
2018-07-21T04:54:44.653Z,12.50
2018-07-21T04:55:44.641Z,13.10
2018-07-21T04:56:44.643Z,12.70
2018-07-21T04:57:44.625Z,13.00
2018-07-21T04:58:44.609Z,12.50
2018-07-21T04:59:44.592Z,12.40
2018-07-21T05:00:44.664Z,13.40
2018-07-21T05:01:44.575Z,12.60
2018-07-21T05:02:44.563Z,13.40
2018-07-21T05:03:44.542Z,13.20
2018-07-21T05:04:44.537Z,12.40
2018-07-21T05:05:44.571Z,13.60
2018-07-21T05:06:44.506Z,13.20
2018-07-21T05:07:44.494Z,13.60
2018-07-21T05:08:44.483Z,13.10
2018-07-21T05:09:44.470Z,13.40
2018-07-21T05:10:44.457Z,13.50
2018-07-21T05:11:44.462Z,14.20
2018-07-21T05:12:44.432Z,13.60
2018-07-21T05:13:44.421Z,13.70
2018-07-21T05:14:44.415Z,13.80
2018-07-21T05:15:44.395Z,13.90
2018-07-21T05:16:44.382Z,14.30
2018-07-21T05:17:44.372Z,13.90
2018-07-21T05:18:44.360Z,13.90
2018-07-21T05:19:44.350Z,14.40
2018-07-21T05:20:44.345Z,14.00
2018-07-21T05:21:44.325Z,15.00
2018-07-21T05:22:44.315Z,13.90
2018-07-21T05:23:44.297Z,14.00
2018-07-21T05:24:44.290Z,13.80
2018-07-21T05:25:44.273Z,14.10
2018-07-21T05:26:44.270Z,14.70
2018-07-21T05:27:44.251Z,14.80
2018-07-21T05:28:44.238Z,15.60
2018-07-21T05:29:44.225Z,14.70
2018-07-21T05:30:44.212Z,14.10
2018-07-21T05:31:44.202Z,14.50
2018-07-21T05:32:44.195Z,14.30
2018-07-21T05:33:44.178Z,14.90
2018-07-21T05:34:44.165Z,15.10
2018-07-21T05:35:44.152Z,14.80
2018-07-21T05:36:44.139Z,14.50
2018-07-21T05:37:44.250Z,14.40
2018-07-21T05:38:44.116Z,15.20
2018-07-21T05:39:44.103Z,14.70
2018-07-21T05:40:44.097Z,15.50
2018-07-21T05:41:44.086Z,14.80
2018-07-21T05:42:44.071Z,14.40
2018-07-21T05:43:44.054Z,15.10
2018-07-21T05:44:44.045Z,14.70
2018-07-21T05:45:44.030Z,16.00
2018-07-21T05:46:44.033Z,15.70
2018-07-21T05:47:44.005Z,15.50
2018-07-21T05:48:44.043Z,15.70
2018-07-21T05:49:43.987Z,16.60
2018-07-21T05:50:43.970Z,15.90
2018-07-21T05:51:43.958Z,15.70
2018-07-21T05:52:43.946Z,15.50
2018-07-21T05:53:43.933Z,16.00
2018-07-21T05:54:43.924Z,17.00
2018-07-21T05:55:43.957Z,16.30
2018-07-21T05:56:43.901Z,15.70
2018-07-21T05:57:43.887Z,16.40
2018-07-21T05:58:43.947Z,17.00
2018-07-21T05:59:43.861Z,17.00
2018-07-21T06:00:43.860Z,17.50
2018-07-21T06:01:43.843Z,16.60
2018-07-21T06:02:43.912Z,16.40
2018-07-21T06:03:43.815Z,16.50
2018-07-21T06:04:43.803Z,16.30
2018-07-21T06:05:43.794Z,16.40
2018-07-21T06:06:43.781Z,16.80
2018-07-21T06:07:43.769Z,16.30
2018-07-21T06:08:43.797Z,15.80
2018-07-21T06:09:43.746Z,17.00
2018-07-21T06:10:43.743Z,16.70
2018-07-21T06:11:43.723Z,17.00
2018-07-21T06:12:43.715Z,17.20
2018-07-21T06:13:43.698Z,17.20
2018-07-21T06:14:43.687Z,16.30
2018-07-21T06:15:43.675Z,16.70
2018-07-21T06:16:43.671Z,15.80
2018-07-21T06:17:43.651Z,16.10
2018-07-21T06:18:43.657Z,16.80
2018-07-21T06:19:43.627Z,16.20
2018-07-21T06:20:43.624Z,16.20
2018-07-21T06:21:43.614Z,16.30
2018-07-21T06:22:43.593Z,16.20
2018-07-21T06:23:43.639Z,15.30
2018-07-21T06:24:43.570Z,15.30
2018-07-21T06:25:43.560Z,16.20
2018-07-21T06:26:43.548Z,15.50
2018-07-21T06:27:43.545Z,15.70
2018-07-21T06:28:43.526Z,15.00
2018-07-21T06:29:43.513Z,16.00
2018-07-21T06:30:43.502Z,15.60
2018-07-21T06:31:43.491Z,15.40
2018-07-21T06:32:43.482Z,15.60
2018-07-21T06:33:43.468Z,15.50
2018-07-21T06:34:43.467Z,14.80
2018-07-21T06:35:43.456Z,14.70
2018-07-21T06:36:43.436Z,15.00
2018-07-21T06:37:43.423Z,14.90
2018-07-21T06:38:43.414Z,15.40
2018-07-21T06:39:43.407Z,15.10
2018-07-21T06:40:43.404Z,15.10
2018-07-21T06:41:43.387Z,14.30
2018-07-21T06:42:43.371Z,14.30
2018-07-21T06:43:43.361Z,15.30
2018-07-21T06:44:43.350Z,14.80
2018-07-21T06:45:43.339Z,14.70
2018-07-21T06:46:43.329Z,15.40
2018-07-21T06:47:43.320Z,14.90
2018-07-21T06:48:43.309Z,14.90
2018-07-21T06:49:43.300Z,15.20
2018-07-21T06:50:43.305Z,15.10
2018-07-21T06:51:43.277Z,14.00
2018-07-21T06:52:43.268Z,13.40
2018-07-21T06:53:43.259Z,14.20
2018-07-21T06:54:43.249Z,13.10
2018-07-21T06:55:43.239Z,13.50
2018-07-21T06:56:43.236Z,13.10
2018-07-21T06:57:43.235Z,13.40
2018-07-21T06:58:43.210Z,13.50
2018-07-21T06:59:43.203Z,13.00
2018-07-21T07:00:43.202Z,13.50
2018-07-21T07:01:43.187Z,13.10
2018-07-21T07:02:43.184Z,13.50
2018-07-21T07:03:43.173Z,12.30
2018-07-21T07:04:43.208Z,12.30
2018-07-21T07:05:43.156Z,12.80
2018-07-21T07:06:43.165Z,13.10
2018-07-21T07:07:43.140Z,13.70
2018-07-21T07:08:43.141Z,14.10
2018-07-21T07:09:43.126Z,17.40
2018-07-21T07:10:43.126Z,13.40
2018-07-21T07:11:43.119Z,14.30
2018-07-21T07:12:43.110Z,13.30
2018-07-21T07:13:43.104Z,13.00
2018-07-21T07:14:43.091Z,14.20
2018-07-21T07:15:43.083Z,13.20
2018-07-21T07:16:43.082Z,13.90
2018-07-21T07:17:43.069Z,13.20
2018-07-21T07:18:43.061Z,14.30
2018-07-21T07:19:43.053Z,14.20
2018-07-21T07:20:43.049Z,13.90
2018-07-21T07:21:43.040Z,14.20
2018-07-21T07:22:43.040Z,14.30
2018-07-21T07:23:43.025Z,13.30
2018-07-21T07:24:43.018Z,12.70
2018-07-21T07:25:43.029Z,13.40
2018-07-21T07:26:43.015Z,12.90
2018-07-21T07:27:42.995Z,12.80
2018-07-21T07:28:42.989Z,12.50
2018-07-21T07:29:42.996Z,11.60
2018-07-21T07:30:42.980Z,13.00
2018-07-21T07:31:43.077Z,12.50
2018-07-21T07:32:42.969Z,11.60
2018-07-21T07:33:42.955Z,11.60
2018-07-21T07:34:43.036Z,12.40
2018-07-21T07:35:42.942Z,12.00
2018-07-21T07:36:42.933Z,11.60
2018-07-21T07:37:42.926Z,12.60
2018-07-21T07:38:42.917Z,11.40
2018-07-21T07:39:42.914Z,12.10
2018-07-21T07:40:42.907Z,12.00
2018-07-21T07:41:42.904Z,11.40
2018-07-21T07:42:42.890Z,11.90
2018-07-21T07:43:42.877Z,12.50
2018-07-21T07:44:42.870Z,11.60
2018-07-21T07:45:42.869Z,12.70
2018-07-21T07:46:42.854Z,12.30
2018-07-21T07:47:42.856Z,12.10
2018-07-21T07:48:42.840Z,12.10
2018-07-21T07:49:42.843Z,12.20
2018-07-21T07:50:42.829Z,12.60
2018-07-21T07:51:42.816Z,12.10
2018-07-21T07:52:42.816Z,12.10
2018-07-21T07:53:42.802Z,13.00
2018-07-21T07:54:42.793Z,12.80
2018-07-21T07:55:42.788Z,12.80
2018-07-21T07:56:42.781Z,12.00
2018-07-21T07:57:42.765Z,12.70
2018-07-21T07:58:42.758Z,12.90
2018-07-21T07:59:42.747Z,12.00
2018-07-21T08:00:42.839Z,12.90
2018-07-21T08:01:42.731Z,13.80
2018-07-21T08:02:42.722Z,13.00
2018-07-21T08:03:42.713Z,13.30
2018-07-21T08:04:42.706Z,12.70
2018-07-21T08:05:42.697Z,12.60
2018-07-21T08:06:42.688Z,12.20
2018-07-21T08:07:42.684Z,12.80
2018-07-21T08:08:42.680Z,12.40
2018-07-21T08:09:42.674Z,12.50
2018-07-21T08:10:42.652Z,12.80
2018-07-21T08:11:42.642Z,13.90
2018-07-21T08:12:42.633Z,12.50
2018-07-21T08:13:42.638Z,13.30
2018-07-21T08:14:42.618Z,12.90
2018-07-21T08:15:42.611Z,13.20
2018-07-21T08:16:42.601Z,12.40
2018-07-21T08:17:42.598Z,13.50
2018-07-21T08:18:42.585Z,13.40
2018-07-21T08:19:42.575Z,14.00
2018-07-21T08:20:42.589Z,13.70
2018-07-21T08:21:42.566Z,14.20
2018-07-21T08:22:42.550Z,15.00
2018-07-21T08:23:42.541Z,14.30
2018-07-21T08:24:42.534Z,14.30
2018-07-21T08:25:42.526Z,14.00
2018-07-21T08:26:42.518Z,14.10
2018-07-21T08:27:42.508Z,14.30
2018-07-21T08:28:42.509Z,13.60
2018-07-21T08:29:42.499Z,14.00
2018-07-21T08:30:42.484Z,15.00
2018-07-21T08:31:42.488Z,13.80
2018-07-21T08:32:42.469Z,13.90
2018-07-21T08:33:42.467Z,13.90
2018-07-21T08:34:42.475Z,14.50
2018-07-21T08:35:42.448Z,13.60
2018-07-21T08:36:42.438Z,13.60
2018-07-21T08:37:42.428Z,15.80
2018-07-21T08:38:42.420Z,14.60
2018-07-21T08:39:42.425Z,15.40
2018-07-21T08:40:42.404Z,15.60
2018-07-21T08:41:42.397Z,15.50
2018-07-21T08:42:42.388Z,14.50
2018-07-21T08:43:42.396Z,13.90
2018-07-21T08:44:42.378Z,14.40
2018-07-21T08:45:42.376Z,14.10
2018-07-21T08:46:42.356Z,13.60
2018-07-21T08:47:42.351Z,13.70
2018-07-21T08:48:42.349Z,13.80
2018-07-21T08:49:42.401Z,14.40
2018-07-21T08:50:42.332Z,12.50
2018-07-21T08:51:42.316Z,13.80
2018-07-21T08:52:42.309Z,14.10
2018-07-21T08:53:42.301Z,13.60
2018-07-21T08:54:42.299Z,13.80
2018-07-21T08:55:42.309Z,14.70
2018-07-21T08:56:42.277Z,14.50
2018-07-21T08:57:42.269Z,13.60
2018-07-21T08:58:42.267Z,13.40
2018-07-21T08:59:42.254Z,14.70
2018-07-21T09:00:42.245Z,14.70
2018-07-21T09:01:42.285Z,13.90
2018-07-21T09:02:42.238Z,14.40
2018-07-21T09:03:42.224Z,14.30
2018-07-21T09:04:42.220Z,13.80
2018-07-21T09:05:42.255Z,13.50
2018-07-21T09:06:42.202Z,14.80
2018-07-21T09:07:42.194Z,15.00
2018-07-21T09:08:42.190Z,14.20
2018-07-21T09:09:42.178Z,15.10
2018-07-21T09:10:42.172Z,14.70
2018-07-21T09:11:42.163Z,14.20
2018-07-21T09:12:42.157Z,14.20
2018-07-21T09:13:42.152Z,14.30
2018-07-21T09:14:42.141Z,14.50
2018-07-21T09:15:42.138Z,14.40
2018-07-21T09:16:42.133Z,14.10
2018-07-21T09:17:42.118Z,14.40
2018-07-21T09:18:42.113Z,13.40
2018-07-21T09:19:42.128Z,13.00
2018-07-21T09:20:42.112Z,13.60
2018-07-21T09:21:42.099Z,14.00
2018-07-21T09:22:42.087Z,14.10
2018-07-21T09:23:42.077Z,14.10
2018-07-21T09:24:42.070Z,14.00
2018-07-21T09:25:42.073Z,14.20
2018-07-21T09:26:42.059Z,14.50
2018-07-21T09:27:42.054Z,14.70
2018-07-21T09:28:42.041Z,13.80
2018-07-21T09:29:42.039Z,13.90
2018-07-21T09:30:42.026Z,13.10
2018-07-21T09:31:42.027Z,14.10
2018-07-21T09:32:42.019Z,14.30
2018-07-21T09:33:42.005Z,13.30
2018-07-21T09:34:42.000Z,14.80
2018-07-21T09:35:41.999Z,15.00
2018-07-21T09:36:41.993Z,14.60
2018-07-21T09:37:41.985Z,15.10
2018-07-21T09:38:41.983Z,14.40
2018-07-21T09:39:41.965Z,14.70
2018-07-21T09:40:41.968Z,14.30
2018-07-21T09:41:41.957Z,14.50
2018-07-21T09:42:41.953Z,13.80
2018-07-21T09:43:41.949Z,14.50
2018-07-21T09:44:41.933Z,13.80
2018-07-21T09:45:41.937Z,13.40
2018-07-21T09:46:41.923Z,13.60
2018-07-21T09:47:41.923Z,13.30
2018-07-21T09:48:41.921Z,13.20
2018-07-21T09:49:41.903Z,13.20
2018-07-21T09:50:41.894Z,13.40
2018-07-21T09:51:41.890Z,13.80
2018-07-21T09:52:41.893Z,13.60
2018-07-21T09:53:41.879Z,13.60
2018-07-21T09:54:41.880Z,13.80
2018-07-21T09:55:41.950Z,13.30
2018-07-21T09:56:41.878Z,13.00
2018-07-21T09:57:41.862Z,13.50
2018-07-21T09:58:41.862Z,12.70
2018-07-21T09:59:41.849Z,12.70
2018-07-21T10:00:41.848Z,13.40
2018-07-21T10:01:41.895Z,12.80
2018-07-21T10:02:41.826Z,12.10
2018-07-21T10:03:41.836Z,12.20
2018-07-21T10:04:41.961Z,12.80
2018-07-21T10:05:41.817Z,12.60
2018-07-21T10:06:41.809Z,13.00
2018-07-21T10:07:41.798Z,12.10
2018-07-21T10:08:41.790Z,11.30
2018-07-21T10:09:41.789Z,12.10
2018-07-21T10:10:41.782Z,11.80
2018-07-21T10:11:41.782Z,13.00
2018-07-21T10:12:41.770Z,12.40
2018-07-21T10:13:41.766Z,13.00
2018-07-21T10:14:41.762Z,13.10
2018-07-21T10:15:41.763Z,12.70
2018-07-21T10:16:41.757Z,12.20
2018-07-21T10:17:41.755Z,13.40
2018-07-21T10:18:41.746Z,12.90
2018-07-21T10:19:41.740Z,12.30
2018-07-21T10:20:41.775Z,11.70
2018-07-21T10:21:41.735Z,10.90
2018-07-21T10:22:41.748Z,12.20
2018-07-21T10:23:41.730Z,11.40
2018-07-21T10:24:41.725Z,11.60
2018-07-21T10:25:41.723Z,12.00
2018-07-21T10:26:41.721Z,11.60
2018-07-21T10:27:41.719Z,12.10
2018-07-21T10:28:41.719Z,11.30
2018-07-21T10:29:41.731Z,10.70
2018-07-21T10:30:41.731Z,11.10
2018-07-21T10:31:41.715Z,10.20
2018-07-21T10:32:41.715Z,10.00
2018-07-21T10:33:41.866Z,10.20
2018-07-21T10:34:41.720Z,10.20
2018-07-21T10:35:41.712Z,9.80
2018-07-21T10:36:41.718Z,10.40
2018-07-21T10:37:41.712Z,9.60
2018-07-21T10:38:41.729Z,9.40
2018-07-21T10:39:41.718Z,9.00
2018-07-21T10:40:41.718Z,9.60
2018-07-21T10:41:41.715Z,9.40
2018-07-21T10:42:41.711Z,9.60
2018-07-21T10:43:41.713Z,10.10
2018-07-21T10:44:41.717Z,10.00
2018-07-21T10:45:41.714Z,10.40
2018-07-21T10:46:41.716Z,10.90
2018-07-21T10:47:41.802Z,10.50
2018-07-21T10:48:41.718Z,10.10
2018-07-21T10:49:41.717Z,9.50
2018-07-21T10:50:41.754Z,9.30
2018-07-21T10:51:41.725Z,10.20
2018-07-21T10:52:41.719Z,9.80
2018-07-21T10:53:41.719Z,19.40
2018-07-21T10:54:41.721Z,10.00
2018-07-21T10:55:41.722Z,9.30
2018-07-21T10:56:41.725Z,9.20
2018-07-21T10:57:41.722Z,9.50
2018-07-21T10:58:41.723Z,8.90
2018-07-21T10:59:41.731Z,9.10
2018-07-21T11:00:41.724Z,9.10
2018-07-21T11:01:41.724Z,9.30
2018-07-21T11:02:41.725Z,9.80
2018-07-21T11:03:41.722Z,9.30
2018-07-21T11:04:41.722Z,9.60
2018-07-21T11:05:41.731Z,9.60
2018-07-21T11:06:41.724Z,10.40
2018-07-21T11:07:41.725Z,10.20
2018-07-21T11:08:41.720Z,9.40
2018-07-21T11:09:41.724Z,9.50
2018-07-21T11:10:41.824Z,9.60
2018-07-21T11:11:41.731Z,9.30
2018-07-21T11:12:41.718Z,9.30
2018-07-21T11:13:41.718Z,8.90
2018-07-21T11:14:41.717Z,9.50
2018-07-21T11:15:41.719Z,10.20
2018-07-21T11:16:41.717Z,9.70
2018-07-21T11:17:41.720Z,9.80
2018-07-21T11:18:41.720Z,9.50
2018-07-21T11:19:41.716Z,10.00
2018-07-21T11:20:41.722Z,10.20
2018-07-21T11:21:41.714Z,9.80
2018-07-21T11:22:41.732Z,10.00
2018-07-21T11:23:41.712Z,10.20
2018-07-21T11:24:41.715Z,10.10
2018-07-21T11:25:41.714Z,9.80
2018-07-21T11:26:41.712Z,10.60
2018-07-21T11:27:41.720Z,9.70
2018-07-21T11:28:41.863Z,10.40
2018-07-21T11:29:41.714Z,9.10
2018-07-21T11:30:41.716Z,9.70
2018-07-21T11:31:41.789Z,10.00
2018-07-21T11:32:41.718Z,10.30
2018-07-21T11:33:41.717Z,9.80
2018-07-21T11:34:41.722Z,9.30
2018-07-21T11:35:41.984Z,9.50
2018-07-21T11:36:41.723Z,9.60
2018-07-21T11:37:41.734Z,9.70
2018-07-21T11:38:41.727Z,9.80
2018-07-21T11:39:41.726Z,9.60
2018-07-21T11:40:41.755Z,9.80
2018-07-21T11:41:41.760Z,9.80
2018-07-21T11:42:41.745Z,9.80
2018-07-21T11:43:41.735Z,10.40
2018-07-21T11:44:41.741Z,10.00
2018-07-21T11:45:41.749Z,10.10
2018-07-21T11:46:41.758Z,9.60
2018-07-21T11:47:41.764Z,10.50
2018-07-21T11:48:41.756Z,10.20
2018-07-21T11:49:41.758Z,9.80
2018-07-21T11:50:41.756Z,10.20
2018-07-21T11:51:41.756Z,9.60
2018-07-21T11:52:41.758Z,9.30
2018-07-21T11:53:41.772Z,9.40
2018-07-21T11:54:41.798Z,9.60
2018-07-21T11:55:41.767Z,9.90
2018-07-21T11:56:41.776Z,10.30
2018-07-21T11:57:41.770Z,9.80
2018-07-21T11:58:41.779Z,9.30
2018-07-21T11:59:41.772Z,10.20
2018-07-21T12:00:41.771Z,9.40
2018-07-21T12:01:41.771Z,9.90
2018-07-21T12:02:41.774Z,9.60
2018-07-21T12:03:41.775Z,9.80
2018-07-21T12:04:41.924Z,9.80
2018-07-21T12:05:41.780Z,10.30
2018-07-21T12:06:41.773Z,10.50
2018-07-21T12:07:41.776Z,10.20
2018-07-21T12:08:41.775Z,10.80
2018-07-21T12:09:41.761Z,9.90
2018-07-21T12:10:41.761Z,10.10
2018-07-21T12:11:41.769Z,10.40
2018-07-21T12:12:41.762Z,10.30
2018-07-21T12:13:41.826Z,10.40
2018-07-21T12:14:41.760Z,10.40
2018-07-21T12:15:41.753Z,10.30
2018-07-21T12:16:41.745Z,9.80
2018-07-21T12:17:41.741Z,10.10
2018-07-21T12:18:41.737Z,9.80
2018-07-21T12:19:41.732Z,10.10
2018-07-21T12:20:41.729Z,10.50
2018-07-21T12:21:41.728Z,9.70
2018-07-21T12:22:41.729Z,10.00
2018-07-21T12:23:41.725Z,10.00
2018-07-21T12:24:41.735Z,10.50
2018-07-21T12:25:41.713Z,10.40
2018-07-21T12:26:41.711Z,10.00
2018-07-21T12:27:41.751Z,10.20
2018-07-21T12:28:41.699Z,10.60
2018-07-21T12:29:41.695Z,10.10
2018-07-21T12:30:41.694Z,10.50
2018-07-21T12:31:41.686Z,10.70
2018-07-21T12:32:41.687Z,10.80
2018-07-21T12:33:41.704Z,10.20
2018-07-21T12:34:41.676Z,9.50
2018-07-21T12:35:41.674Z,10.40
2018-07-21T12:36:41.665Z,10.40
2018-07-21T12:37:41.659Z,10.40
2018-07-21T12:38:41.652Z,10.20
2018-07-21T12:39:41.649Z,9.80
2018-07-21T12:40:41.642Z,9.70
2018-07-21T12:41:41.652Z,9.40
2018-07-21T12:42:41.634Z,10.30
2018-07-21T12:43:41.630Z,10.20
2018-07-21T12:44:41.629Z,10.50
2018-07-21T12:45:41.636Z,10.30
2018-07-21T12:46:41.618Z,10.90
2018-07-21T12:47:41.608Z,10.10
2018-07-21T12:48:41.604Z,9.90
2018-07-21T12:49:41.600Z,10.10
2018-07-21T12:50:41.594Z,9.80
2018-07-21T12:51:41.590Z,10.10
2018-07-21T12:52:41.583Z,10.00
2018-07-21T12:53:41.579Z,10.20
2018-07-21T12:54:41.584Z,10.50
2018-07-21T12:55:41.564Z,9.70
2018-07-21T12:56:41.561Z,10.10
2018-07-21T12:57:41.576Z,9.30
2018-07-21T12:58:41.553Z,10.00
2018-07-21T12:59:41.547Z,9.20
2018-07-21T13:00:41.541Z,9.20
2018-07-21T13:01:41.534Z,9.00
2018-07-21T13:02:41.528Z,9.30
2018-07-21T13:03:41.523Z,9.70
2018-07-21T13:04:41.516Z,15.10
2018-07-21T13:05:41.511Z,11.40